Ipswich, MA (01938)

10:17 AM EDT on April 19, 2015 (GMT -0400)
High St. Ipswich | | Change Station
CLOSE
Current Station
Personal Weather Station
Location: Ipswich, MA
Elevation: 56 ft
Nearby Weather Stations

Elev 56 ft 42.69 °N, 70.85 °W | Updated 13 seconds ago

Clear
Clear
50.7 °F
Feels Like 50.7 °F
N
2.8
Wind Variable Wind from WNW
Gusts 10.3 mph

Today
High -- | Low -- °F
--% Chance of Precip.
Yesterday
High -- | Low -- °F
Precip. -- in
5:56 AM 7:29 PM
New Moon, 1% visible
Pressure 30.26 in
Visibility 10.0 miles
Clouds Mostly Cloudy 3500 ft
Dew Point 36 °F
Humidity 56%
Rainfall 0.00 in
Snow Depth Not available.
UV 3 out of 12
Pollen 9.10 out of 12
Air Quality Not available.
Flu Activity Widespread
METAR KBVY 191353Z 05007KT 10SM BKN035 09/M01 A3026

More Conditions Fewer Conditions

Pressure 30.26 in
Visibility 10.0 miles
Clouds Mostly Cloudy 3500 ft
Dew Point 36 °F
Humidity 56%
Rainfall 0.00 in
Snow Depth Not available.
UV 3 out of 12
Pollen 9.10 out of 12
Air Quality Not available.
Flu Activity Widespread
METAR KBVY 191353Z 05007KT 10SM BKN035 09/M01 A3026

More Conditions Fewer Conditions

10-Day Weather Forecast

Almanac

Astronomy

Apr. 19, 2015 Rise Set
Actual Time
Civil Twilight
Nautical Twilight
Astronomical Twilight
Moon
Length of Visible Light
Length of Day
Tomorrow will be .
, % of the Moon is Illuminated

Today's Extremes

State Highs State Lows

Community

WunderPhotos

Upload Photos

1,814,807 photos uploaded!

WunderBlogs® & News

Nearby

Air Quality

  Air Quality AQ Index Pollutant
Not available.

Snow Depth

Station Depth Elevation

Earthquake Activity

City Distance Mag. Time & Date
Minimum magnitude displayed is 2.5.

Coastal Water Temperatures

Place Temperature

Stations

Nearby Weather Stations

Station Location Temp. Windchill Dew Point Humidity Wind Precip. Elev Updated Type